Terminal Aerodrome Forecast
Issued by NWS North Platte, NE

Home | Current Version | Previous Version | Graphics & Text | Print | Product List | Glossary On
Versions: 1 2 3 4 5 6 7 8 9 10 11 12 13 14 15 16
892
FTUS43 KLBF 210707 AAA
TAFVTN
TAF AMD
KVTN 210707Z 2107/2206 36010KT P6SM OVC030
     FM210900 01009KT P6SM -SN OVC010
     FM211100 01010KT 3SM -SN OVC008
     FM211800 02012KT 1SM -SN OVC005
     FM220200 36016G23KT 3/4SM -SN BLSN OVC003=

USA.gov is the U.S. government's official web portal to all federal, state and local government web resources and services.